createdAt,value
2022-09-06T00:01:16.245Z,38.60
2022-09-06T00:03:45.795Z,38.90
2022-09-06T00:06:20.677Z,38.60
2022-09-06T00:08:48.888Z,38.60
2022-09-06T00:11:17.326Z,38.60
2022-09-06T00:13:45.295Z,38.80
2022-09-06T00:16:14.635Z,38.80
2022-09-06T00:18:42.660Z,38.70
2022-09-06T00:21:19.212Z,38.70
2022-09-06T00:23:47.032Z,38.90
2022-09-06T00:26:14.995Z,38.90
2022-09-06T00:28:42.961Z,38.80
2022-09-06T00:31:11.984Z,38.80
2022-09-06T00:33:40.131Z,38.80
2022-09-06T00:36:08.582Z,38.80
2022-09-06T00:38:37.809Z,38.70
2022-09-06T00:41:06.029Z,38.80
2022-09-06T00:43:33.971Z,39.10
2022-09-06T00:46:02.210Z,38.80
2022-09-06T00:48:30.282Z,39.10
2022-09-06T00:50:59.897Z,39.10
2022-09-06T00:53:28.109Z,39.20
2022-09-06T00:55:57.393Z,39.40
2022-09-06T00:58:26.759Z,39.40
2022-09-06T01:00:54.781Z,39.30
2022-09-06T01:03:22.848Z,39.10
2022-09-06T01:05:54.744Z,39.00
2022-09-06T01:08:26.311Z,39.30
2022-09-06T01:11:11.478Z,39.40
2022-09-06T01:13:44.845Z,39.30
2022-09-06T01:16:15.009Z,39.10
2022-09-06T01:18:58.422Z,39.40
2022-09-06T01:21:33.800Z,39.20
2022-09-06T01:24:25.359Z,39.30
2022-09-06T01:27:22.389Z,39.40
2022-09-06T01:29:51.763Z,39.60
2022-09-06T01:32:23.880Z,39.50
2022-09-06T01:34:53.468Z,39.50
2022-09-06T01:37:21.904Z,39.50
2022-09-06T01:39:49.871Z,39.70
2022-09-06T01:42:19.356Z,39.70
2022-09-06T01:44:48.845Z,40.00
2022-09-06T01:47:23.549Z,40.10
2022-09-06T01:49:59.567Z,40.00
2022-09-06T01:52:30.369Z,40.00
2022-09-06T01:55:06.351Z,39.80
2022-09-06T01:57:42.882Z,39.90
2022-09-06T02:00:11.224Z,40.00
2022-09-06T02:02:48.445Z,40.20
2022-09-06T02:05:19.692Z,40.30
2022-09-06T02:07:47.616Z,40.30
2022-09-06T02:10:18.096Z,40.00
2022-09-06T02:12:47.058Z,40.20
2022-09-06T02:15:16.693Z,40.00
2022-09-06T02:17:48.519Z,40.10
2022-09-06T02:20:17.678Z,40.20
2022-09-06T02:22:46.158Z,40.00
2022-09-06T02:25:16.149Z,40.00
2022-09-06T02:27:43.939Z,40.30
2022-09-06T02:30:12.705Z,40.30
2022-09-06T02:32:43.455Z,40.40
2022-09-06T02:35:14.227Z,40.40
2022-09-06T02:37:42.349Z,40.40
2022-09-06T02:40:11.701Z,40.20
2022-09-06T02:42:40.245Z,40.50
2022-09-06T02:45:08.895Z,40.50
2022-09-06T02:47:36.680Z,40.80
2022-09-06T02:50:04.869Z,40.70
2022-09-06T02:52:34.375Z,40.60
2022-09-06T02:55:02.350Z,40.80
2022-09-06T02:57:30.348Z,40.70
2022-09-06T02:59:58.347Z,40.70
2022-09-06T03:02:26.310Z,40.80
2022-09-06T03:04:54.361Z,40.80
2022-09-06T03:07:22.322Z,40.90
2022-09-06T03:09:51.671Z,40.90
2022-09-06T03:12:19.709Z,41.10
2022-09-06T03:14:50.104Z,41.10
2022-09-06T03:17:20.073Z,41.10
2022-09-06T03:19:48.112Z,41.20
2022-09-06T03:22:15.992Z,41.00
2022-09-06T03:24:43.899Z,41.30
2022-09-06T03:27:13.841Z,41.20
2022-09-06T03:29:41.716Z,41.20
2022-09-06T03:32:09.554Z,41.20
2022-09-06T03:34:37.333Z,41.20
2022-09-06T03:37:05.467Z,41.20
2022-09-06T03:39:33.283Z,41.10
2022-09-06T03:42:03.039Z,41.10
2022-09-06T03:44:32.465Z,41.40
2022-09-06T03:47:00.373Z,41.30
2022-09-06T03:49:28.343Z,41.40
2022-09-06T03:51:56.242Z,41.40
2022-09-06T03:54:24.559Z,41.40
2022-09-06T03:56:52.393Z,41.60
2022-09-06T03:59:26.484Z,41.40
2022-09-06T04:01:55.986Z,41.30
2022-09-06T04:04:23.980Z,41.30
2022-09-06T04:06:51.842Z,41.40
2022-09-06T04:09:19.798Z,41.70
2022-09-06T04:11:47.693Z,41.70
2022-09-06T04:14:15.484Z,41.50
2022-09-06T04:16:43.454Z,41.50
2022-09-06T04:19:13.012Z,41.40
2022-09-06T04:21:41.408Z,41.50
2022-09-06T04:24:09.439Z,41.50
2022-09-06T04:26:37.311Z,41.50
2022-09-06T04:29:07.247Z,41.30
2022-09-06T04:31:35.367Z,41.70
2022-09-06T04:34:03.442Z,41.30
2022-09-06T04:36:32.831Z,41.40
2022-09-06T04:39:00.930Z,41.40
2022-09-06T04:41:28.927Z,41.40
2022-09-06T04:43:56.875Z,41.50
2022-09-06T04:46:27.310Z,41.80
2022-09-06T04:48:55.551Z,41.60
2022-09-06T04:51:24.085Z,41.70
2022-09-06T04:53:53.292Z,41.60
2022-09-06T04:56:21.956Z,41.90
2022-09-06T04:58:50.141Z,41.60
2022-09-06T05:01:18.144Z,41.50
2022-09-06T05:03:45.954Z,41.50
2022-09-06T05:06:14.562Z,41.70
2022-09-06T05:08:45.918Z,41.40
2022-09-06T05:11:15.262Z,42.10
2022-09-06T05:13:43.488Z,42.50
2022-09-06T05:16:12.130Z,44.40
2022-09-06T05:18:40.150Z,44.00
2022-09-06T05:21:08.141Z,43.10
2022-09-06T05:23:36.132Z,42.50
2022-09-06T05:26:05.072Z,42.50
2022-09-06T05:28:34.464Z,42.20
2022-09-06T05:31:09.264Z,42.40
2022-09-06T05:33:37.444Z,42.20
2022-09-06T05:36:06.073Z,42.20
2022-09-06T05:38:34.299Z,42.50
2022-09-06T05:41:02.348Z,41.90
2022-09-06T05:43:30.281Z,42.00
2022-09-06T05:45:59.776Z,42.00
2022-09-06T05:48:28.118Z,42.80
2022-09-06T05:51:02.573Z,43.00
2022-09-06T05:53:35.686Z,42.30
2022-09-06T05:56:04.026Z,41.90
2022-09-06T05:58:31.841Z,41.60
2022-09-06T06:01:08.356Z,41.60
2022-09-06T06:03:36.461Z,41.40
2022-09-06T06:06:04.552Z,41.30
2022-09-06T06:08:32.629Z,41.30
2022-09-06T06:11:01.459Z,41.30
2022-09-06T06:13:29.976Z,41.30
2022-09-06T06:15:58.020Z,41.20
2022-09-06T06:18:27.460Z,41.30
2022-09-06T06:21:11.293Z,41.30
2022-09-06T06:23:39.495Z,41.50
2022-09-06T06:26:07.992Z,41.60
2022-09-06T06:28:36.802Z,41.70
2022-09-06T06:31:05.019Z,41.60
2022-09-06T06:33:36.266Z,41.70
2022-09-06T06:36:05.477Z,41.60
2022-09-06T06:38:33.729Z,41.80
2022-09-06T06:41:06.455Z,41.80
2022-09-06T06:43:38.055Z,41.90
2022-09-06T06:46:06.733Z,41.90
2022-09-06T06:48:36.357Z,42.10
2022-09-06T06:51:04.559Z,42.10
2022-09-06T06:53:32.893Z,42.00
2022-09-06T06:56:00.930Z,42.10
2022-09-06T06:58:29.222Z,42.00
2022-09-06T07:00:57.394Z,42.00
2022-09-06T07:03:25.497Z,42.00
2022-09-06T07:08:38.329Z,41.80
2022-09-06T07:11:06.863Z,41.80
2022-09-06T07:13:35.057Z,41.80
2022-09-06T07:16:10.586Z,41.70
2022-09-06T07:18:42.094Z,41.70
2022-09-06T07:26:33.056Z,41.70
2022-09-06T07:29:01.964Z,41.70
2022-09-06T07:34:18.347Z,41.60
2022-09-06T07:36:48.302Z,41.70
2022-09-06T07:39:16.436Z,41.50
2022-09-06T07:41:44.543Z,41.60
2022-09-06T07:44:15.714Z,41.60
2022-09-06T07:46:43.756Z,41.40
2022-09-06T07:49:11.757Z,41.40
2022-09-06T07:51:39.734Z,41.50
2022-09-06T07:56:57.256Z,41.50
2022-09-06T07:59:25.190Z,41.70
2022-09-06T08:01:53.215Z,41.70
2022-09-06T08:04:21.088Z,41.70
2022-09-06T08:09:41.454Z,41.80
2022-09-06T08:12:09.615Z,42.00
2022-09-06T08:14:37.457Z,42.00
2022-09-06T08:17:05.479Z,42.10
2022-09-06T08:19:34.434Z,42.20
2022-09-06T08:22:02.364Z,42.20
2022-09-06T08:24:30.526Z,42.20
2022-09-06T08:26:59.943Z,42.20
2022-09-06T08:29:27.908Z,42.40
2022-09-06T08:31:55.749Z,42.30
2022-09-06T08:34:23.574Z,42.20
2022-09-06T08:36:55.510Z,42.10
2022-09-06T08:39:23.634Z,42.20
2022-09-06T08:41:53.891Z,42.20
2022-09-06T08:47:30.419Z,42.00
2022-09-06T08:50:03.422Z,42.10
2022-09-06T08:53:06.491Z,42.00
2022-09-06T08:55:38.153Z,42.00
2022-09-06T08:58:15.852Z,42.00
2022-09-06T09:00:47.936Z,41.90
2022-09-06T09:03:17.702Z,42.00
2022-09-06T09:05:45.940Z,41.90
2022-09-06T09:08:36.792Z,41.90
2022-09-06T09:11:08.329Z,41.80
2022-09-06T09:13:40.191Z,41.60
2022-09-06T09:16:09.818Z,41.50
2022-09-06T09:18:42.545Z,41.30
2022-09-06T09:21:10.747Z,41.30
2022-09-06T09:23:38.679Z,41.30
2022-09-06T09:26:08.581Z,41.30
2022-09-06T09:28:43.696Z,41.20
2022-09-06T09:31:14.479Z,41.30
2022-09-06T09:33:42.741Z,41.40
2022-09-06T09:36:15.908Z,41.30
2022-09-06T09:38:45.084Z,41.30
2022-09-06T09:41:38.424Z,41.40
2022-09-06T09:44:07.589Z,41.30
2022-09-06T09:46:39.327Z,41.30
2022-09-06T09:49:09.185Z,41.20
2022-09-06T09:51:38.039Z,41.10
2022-09-06T09:54:07.391Z,41.10
2022-09-06T09:56:41.214Z,41.10
2022-09-06T09:59:18.036Z,41.00
2022-09-06T10:01:47.695Z,41.10
2022-09-06T10:07:12.180Z,41.10
2022-09-06T10:09:41.447Z,41.20
2022-09-06T10:12:09.468Z,41.20
2022-09-06T10:14:42.997Z,41.30
2022-09-06T10:17:19.113Z,41.30
2022-09-06T10:19:47.465Z,41.30
2022-09-06T10:22:27.466Z,41.20
2022-09-06T10:25:31.383Z,41.30
2022-09-06T10:28:29.426Z,41.10
2022-09-06T10:31:17.387Z,41.10
2022-09-06T10:33:54.531Z,41.00
2022-09-06T10:36:26.250Z,40.90
2022-09-06T10:38:55.182Z,40.80
2022-09-06T10:41:29.617Z,40.70
2022-09-06T10:44:02.147Z,40.50
2022-09-06T10:46:30.355Z,40.50
2022-09-06T10:49:00.080Z,40.40
2022-09-06T10:51:33.146Z,40.40
2022-09-06T10:54:04.881Z,40.20
2022-09-06T10:56:35.988Z,40.20
2022-09-06T11:01:58.804Z,39.80
2022-09-06T11:04:30.838Z,39.70
2022-09-06T11:07:00.771Z,39.60
2022-09-06T11:09:31.145Z,39.40
2022-09-06T11:12:02.862Z,39.00
2022-09-06T11:14:31.029Z,38.90
2022-09-06T11:17:01.017Z,38.90
2022-09-06T11:19:33.218Z,38.90
2022-09-06T11:22:28.848Z,38.90
2022-09-06T11:25:35.608Z,40.10
2022-09-06T11:28:03.691Z,36.70
2022-09-06T11:30:31.599Z,33.90
2022-09-06T11:33:09.053Z,32.50
2022-09-06T11:35:38.458Z,31.80
2022-09-06T11:38:08.252Z,31.10
2022-09-06T11:40:37.931Z,30.60
2022-09-06T11:43:19.437Z,30.10
2022-09-06T11:45:49.422Z,29.90
2022-09-06T11:49:01.592Z,29.40
2022-09-06T11:51:35.769Z,29.30
2022-09-06T11:54:27.010Z,28.80
2022-09-06T11:56:58.526Z,28.70
2022-09-06T11:59:36.954Z,27.90
2022-09-06T12:02:06.097Z,27.50
2022-09-06T12:05:16.568Z,27.10
2022-09-06T12:08:21.935Z,27.10
2022-09-06T12:10:59.801Z,26.40
2022-09-06T12:13:55.760Z,25.80
2022-09-06T12:16:24.029Z,25.40
2022-09-06T12:19:00.197Z,24.90
2022-09-06T12:21:42.670Z,25.30
2022-09-06T12:24:11.343Z,27.30
2022-09-06T12:26:54.463Z,27.90
2022-09-06T12:29:25.395Z,28.60
2022-09-06T12:31:53.669Z,29.70
2022-09-06T12:34:23.477Z,30.40
2022-09-06T12:36:56.997Z,30.90
2022-09-06T12:39:25.250Z,31.50
2022-09-06T12:41:57.214Z,31.80
2022-09-06T12:44:33.322Z,31.90
2022-09-06T12:47:05.632Z,31.90
2022-09-06T12:49:33.543Z,30.20
2022-09-06T12:52:09.041Z,28.60
2022-09-06T12:54:43.441Z,27.30
2022-09-06T12:57:19.370Z,26.80
2022-09-06T12:59:51.875Z,27.50
2022-09-06T13:02:22.955Z,25.90
2022-09-06T13:04:52.176Z,25.30
2022-09-06T13:07:20.486Z,25.10
2022-09-06T13:09:49.476Z,24.80
2022-09-06T13:12:22.532Z,24.60
2022-09-06T13:14:53.609Z,24.30
2022-09-06T13:17:25.559Z,23.90
2022-09-06T13:19:53.498Z,23.80
2022-09-06T13:22:41.768Z,23.50
2022-09-06T13:25:17.610Z,23.40
2022-09-06T13:27:51.220Z,22.90
2022-09-06T13:30:33.545Z,23.50
2022-09-06T13:33:01.879Z,24.00
2022-09-06T13:35:31.614Z,24.40
2022-09-06T13:38:32.327Z,25.00
2022-09-06T13:41:16.881Z,25.70
2022-09-06T13:43:48.080Z,26.30
2022-09-06T13:46:16.159Z,26.70
2022-09-06T13:48:45.127Z,27.20
2022-09-06T13:51:13.373Z,26.90
2022-09-06T13:53:41.385Z,26.70
2022-09-06T13:56:09.415Z,26.30
2022-09-06T13:58:37.382Z,26.00
2022-09-06T14:01:08.822Z,26.40
2022-09-06T14:03:37.046Z,25.80
2022-09-06T14:06:05.195Z,25.50
2022-09-06T14:08:49.702Z,25.30
2022-09-06T14:11:21.620Z,25.20
2022-09-06T14:13:49.835Z,25.00
2022-09-06T14:16:19.448Z,25.00
2022-09-06T14:18:47.463Z,25.00
2022-09-06T14:21:15.464Z,25.00
2022-09-06T14:23:43.515Z,24.80
2022-09-06T14:26:12.157Z,24.60
2022-09-06T14:28:40.064Z,24.50
2022-09-06T14:31:12.401Z,24.20
2022-09-06T14:33:41.767Z,24.10
2022-09-06T14:36:10.494Z,24.30
2022-09-06T14:38:40.093Z,24.20
2022-09-06T14:41:08.945Z,24.40
2022-09-06T14:43:36.958Z,24.40
2022-09-06T14:46:06.246Z,24.60
2022-09-06T14:48:34.357Z,25.40
2022-09-06T14:51:09.721Z,25.90
2022-09-06T14:53:40.998Z,26.50
2022-09-06T14:56:09.535Z,27.10
2022-09-06T14:58:38.115Z,27.60
2022-09-06T15:01:13.559Z,27.70
2022-09-06T15:03:43.714Z,27.80
2022-09-06T15:06:13.399Z,28.00
2022-09-06T15:08:41.365Z,28.50
2022-09-06T15:11:09.531Z,29.90
2022-09-06T15:13:37.611Z,31.60
2022-09-06T15:16:05.942Z,33.80
2022-09-06T15:18:34.132Z,37.70
2022-09-06T15:21:09.776Z,40.90
2022-09-06T15:23:39.674Z,42.00
2022-09-06T15:26:08.112Z,42.90
2022-09-06T15:28:43.094Z,43.00
2022-09-06T15:31:14.031Z,41.40
2022-09-06T15:33:44.550Z,40.80
2022-09-06T15:36:23.475Z,40.80
2022-09-06T15:38:54.518Z,40.80
2022-09-06T15:41:25.248Z,40.50
2022-09-06T15:43:55.679Z,40.80
2022-09-06T15:46:44.307Z,40.80
2022-09-06T15:49:15.429Z,41.40
2022-09-06T15:51:43.643Z,41.70
2022-09-06T15:54:14.170Z,42.20
2022-09-06T15:56:47.798Z,42.00
2022-09-06T15:59:15.820Z,41.80
2022-09-06T16:01:44.020Z,41.90
2022-09-06T16:04:12.022Z,42.00
2022-09-06T16:06:42.780Z,42.60
2022-09-06T16:09:17.286Z,42.60
2022-09-06T16:11:45.316Z,42.60
2022-09-06T16:14:15.546Z,42.60
2022-09-06T16:16:53.506Z,42.90
2022-09-06T16:19:24.273Z,42.80
2022-09-06T16:21:52.468Z,43.30
2022-09-06T16:24:22.353Z,43.60
2022-09-06T16:26:50.919Z,43.90
2022-09-06T16:29:19.202Z,44.00
2022-09-06T16:31:47.430Z,44.10
2022-09-06T16:34:17.389Z,44.30
2022-09-06T16:36:45.506Z,45.10
2022-09-06T16:39:13.597Z,45.50
2022-09-06T16:41:43.868Z,45.80
2022-09-06T16:44:16.606Z,45.60
2022-09-06T16:46:45.182Z,45.40
2022-09-06T16:49:13.159Z,44.90
2022-09-06T16:51:42.014Z,45.10
2022-09-06T16:54:09.988Z,45.10
2022-09-06T16:56:43.818Z,45.20
2022-09-06T16:59:12.215Z,45.50
2022-09-06T17:01:41.672Z,45.70
2022-09-06T17:04:10.072Z,45.40
2022-09-06T17:06:47.185Z,45.30
2022-09-06T17:09:34.568Z,45.10
2022-09-06T17:12:07.729Z,45.30
2022-09-06T17:14:42.761Z,45.50
2022-09-06T17:17:10.243Z,45.60
2022-09-06T17:19:39.518Z,45.40
2022-09-06T17:22:07.743Z,45.70
2022-09-06T17:24:38.053Z,45.70
2022-09-06T17:27:07.841Z,46.30
2022-09-06T17:29:44.988Z,45.80
2022-09-06T17:32:15.573Z,45.60
2022-09-06T17:34:55.198Z,45.20
2022-09-06T17:37:41.400Z,45.40
2022-09-06T17:40:13.886Z,45.60
2022-09-06T17:42:44.520Z,45.60
2022-09-06T17:45:21.046Z,45.40
2022-09-06T17:47:57.605Z,45.70
2022-09-06T17:50:32.906Z,46.00
2022-09-06T17:53:02.993Z,45.70
2022-09-06T17:55:31.265Z,45.60
2022-09-06T17:58:00.885Z,45.60
2022-09-06T18:00:29.117Z,45.60
2022-09-06T18:02:57.321Z,45.60
2022-09-06T18:05:25.539Z,45.60
2022-09-06T18:07:53.906Z,45.80
2022-09-06T18:10:22.174Z,45.80
2022-09-06T18:12:50.424Z,45.50
2022-09-06T18:15:20.372Z,45.70
2022-09-06T18:17:49.053Z,45.10
2022-09-06T18:20:17.762Z,45.70
2022-09-06T18:22:48.531Z,45.60
2022-09-06T18:25:16.642Z,45.70
2022-09-06T18:27:47.191Z,45.30
2022-09-06T18:30:15.590Z,45.40
2022-09-06T18:32:45.386Z,45.60
2022-09-06T18:35:13.816Z,45.70
2022-09-06T18:37:41.874Z,45.70
2022-09-06T18:40:11.156Z,46.00
2022-09-06T18:42:43.896Z,45.90
2022-09-06T18:45:12.128Z,46.50
2022-09-06T18:47:46.592Z,46.40
2022-09-06T18:50:16.114Z,46.20
2022-09-06T18:52:47.217Z,46.20
2022-09-06T18:55:15.365Z,46.50
2022-09-06T18:57:43.283Z,46.50
2022-09-06T19:00:12.882Z,46.40
2022-09-06T19:02:40.976Z,46.40
2022-09-06T19:05:13.996Z,46.80
2022-09-06T19:07:47.313Z,46.50
2022-09-06T19:10:15.423Z,46.90
2022-09-06T19:12:43.444Z,47.30
2022-09-06T19:15:12.275Z,47.40
2022-09-06T19:17:54.434Z,47.30
2022-09-06T19:20:26.862Z,47.20
2022-09-06T19:22:54.813Z,47.40
2022-09-06T19:25:22.731Z,47.60
2022-09-06T19:27:50.953Z,48.10
2022-09-06T19:30:21.421Z,47.50
2022-09-06T19:32:49.343Z,47.60
2022-09-06T19:35:21.198Z,47.80
2022-09-06T19:37:50.684Z,48.00
2022-09-06T19:40:18.757Z,47.90
2022-09-06T19:42:46.847Z,48.30
2022-09-06T19:45:14.905Z,48.40
2022-09-06T19:47:42.948Z,48.80
2022-09-06T19:50:11.043Z,48.70
2022-09-06T19:52:39.126Z,47.30
2022-09-06T19:55:09.258Z,46.50
2022-09-06T19:57:37.059Z,46.10
2022-09-06T20:00:11.741Z,45.70
2022-09-06T20:02:44.462Z,45.40
2022-09-06T20:05:12.512Z,45.10
2022-09-06T20:07:40.474Z,44.80
2022-09-06T20:10:16.537Z,44.60
2022-09-06T20:12:44.472Z,44.60
2022-09-06T20:15:16.912Z,44.50
2022-09-06T20:17:44.906Z,44.50
2022-09-06T20:20:12.996Z,44.40
2022-09-06T20:22:41.015Z,44.50
2022-09-06T20:25:11.957Z,44.30
2022-09-06T20:27:57.322Z,44.20
2022-09-06T20:30:25.358Z,44.10
2022-09-06T20:32:53.542Z,44.20
2022-09-06T20:35:29.071Z,44.20
2022-09-06T20:37:57.189Z,44.20
2022-09-06T20:40:26.710Z,44.30
2022-09-06T20:42:54.637Z,44.10
2022-09-06T20:45:25.306Z,43.90
2022-09-06T20:47:53.964Z,43.80
2022-09-06T20:50:21.942Z,43.70
2022-09-06T20:52:50.051Z,43.50
2022-09-06T20:55:18.443Z,43.60
2022-09-06T20:57:49.422Z,43.50
2022-09-06T21:00:17.981Z,43.50
2022-09-06T21:02:46.405Z,43.50
2022-09-06T21:05:14.545Z,43.20
2022-09-06T21:07:42.761Z,43.30
2022-09-06T21:10:11.730Z,43.30
2022-09-06T21:12:40.058Z,43.40
2022-09-06T21:15:10.356Z,43.20
2022-09-06T21:17:39.074Z,43.30
2022-09-06T21:20:07.891Z,43.40
2022-09-06T21:22:36.057Z,43.40
2022-09-06T21:25:04.076Z,43.20
2022-09-06T21:27:32.698Z,43.20
2022-09-06T21:30:00.645Z,43.40
2022-09-06T21:32:30.061Z,43.20
2022-09-06T21:34:58.091Z,43.20
2022-09-06T21:37:26.164Z,43.30
2022-09-06T21:39:54.541Z,43.30
2022-09-06T21:42:22.916Z,43.20
2022-09-06T21:44:50.957Z,43.20
2022-09-06T21:47:19.030Z,43.20
2022-09-06T21:49:48.640Z,43.40
2022-09-06T21:52:16.613Z,43.20
2022-09-06T21:54:44.679Z,43.30
2022-09-06T21:57:12.723Z,43.30
2022-09-06T21:59:40.812Z,43.40
2022-09-06T22:02:09.776Z,43.30
2022-09-06T22:04:37.994Z,43.20
2022-09-06T22:07:07.629Z,43.20
2022-09-06T22:09:35.644Z,43.30
2022-09-06T22:12:04.120Z,43.30
2022-09-06T22:14:32.057Z,43.30
2022-09-06T22:17:00.074Z,43.30
2022-09-06T22:19:28.193Z,43.20
2022-09-06T22:21:56.227Z,43.40
2022-09-06T22:24:25.765Z,43.50
2022-09-06T22:26:53.656Z,43.20
2022-09-06T22:29:21.783Z,43.40
2022-09-06T22:31:49.836Z,43.30
2022-09-06T22:34:18.056Z,44.00
2022-09-06T22:36:46.104Z,43.30
2022-09-06T22:39:14.315Z,43.30
2022-09-06T22:41:44.702Z,43.20
2022-09-06T22:44:13.432Z,43.20
2022-09-06T22:46:41.489Z,43.30
2022-09-06T22:49:09.626Z,43.30
2022-09-06T22:51:37.584Z,43.40
2022-09-06T22:54:05.772Z,43.30
2022-09-06T22:56:33.884Z,43.30
2022-09-06T22:59:03.369Z,43.20
2022-09-06T23:01:38.690Z,43.30
2022-09-06T23:04:07.326Z,43.30
2022-09-06T23:06:35.630Z,43.30
2022-09-06T23:09:03.655Z,43.20
2022-09-06T23:11:32.699Z,43.20
2022-09-06T23:14:02.971Z,43.30
2022-09-06T23:16:31.106Z,43.30
2022-09-06T23:18:59.212Z,43.30
2022-09-06T23:21:27.553Z,43.30
2022-09-06T23:23:56.359Z,43.20
2022-09-06T23:26:26.499Z,43.30
2022-09-06T23:28:56.588Z,43.20
2022-09-06T23:31:26.796Z,43.30
2022-09-06T23:33:55.098Z,43.30
2022-09-06T23:36:23.226Z,43.30
2022-09-06T23:38:51.371Z,43.30
2022-09-06T23:41:19.517Z,43.20
2022-09-06T23:43:47.478Z,43.30
2022-09-06T23:46:16.110Z,43.90
2022-09-06T23:48:45.721Z,43.30
2022-09-06T23:51:13.966Z,43.30
2022-09-06T23:53:42.048Z,43.30
2022-09-06T23:56:10.053Z,43.30
2022-09-06T23:58:37.894Z,43.20
